Grand Ledge, Michigan
Current Conditions -  °F | °C
As of 8:53 PM on Monday 24 Nov 2014 (Local Time) from KLAN Reporting Station
Overcast Overcast  
Wind Chill: 18°   Ceiling: 1500
Heat Index: 32°   Visibility: 10mi
Dew Point: 26°   Wind: 28mph
Humidity: 79%   Direction: 240°WSW
Pressure: 29.58"   Gusts: 46mph
Location:  42.75°N, 84.74°W
Report Text: KLAN 250153Z 24024G40KT 10SM OVC015 00/M03 A2958 RMK AO2 PK WND 24042/0140 UPB05E07RAB07E45SNE05 SLP020 P0000 T00001033
Loading
Personal Weather Stations






























Interactive Weather Map New forecast layout! Learn more

10-Day Weather Forecast

Advertisements
Track Severe Weather on mobile